createdAt,value
2023-02-28T00:01:26.290Z,102567.69
2023-02-28T00:03:55.620Z,102572.84
2023-02-28T00:06:23.629Z,102579.63
2023-02-28T00:08:51.395Z,102576.63
2023-02-28T00:11:20.376Z,102577.75
2023-02-28T00:13:49.281Z,102571.41
2023-02-28T00:16:19.373Z,102573.25
2023-02-28T00:18:48.365Z,102572.53
2023-02-28T00:21:18.857Z,102565.84
2023-02-28T00:23:46.985Z,102567.28
2023-02-28T00:26:15.032Z,102567.31
2023-02-28T00:28:46.485Z,102570.34
2023-02-28T00:31:14.338Z,102565.16
2023-02-28T00:33:42.277Z,102561.84
2023-02-28T00:36:12.761Z,102570.75
2023-02-28T00:38:42.985Z,102552.91
2023-02-28T00:41:11.287Z,102561.06
2023-02-28T00:43:40.451Z,102561.16
2023-02-28T00:46:09.142Z,102563.88
2023-02-28T00:48:37.509Z,102551.78
2023-02-28T00:51:06.094Z,102559.53
2023-02-28T00:53:34.489Z,102563.03
2023-02-28T00:56:04.590Z,102568.25
2023-02-28T00:58:34.413Z,102563.97
2023-02-28T01:01:02.377Z,102566.06
2023-02-28T01:03:30.714Z,102571.50
2023-02-28T01:06:00.536Z,102565.44
2023-02-28T01:08:28.596Z,102569.13
2023-02-28T01:10:56.742Z,102573.47
2023-02-28T01:13:26.496Z,102568.66
2023-02-28T01:15:58.048Z,102571.09
2023-02-28T01:18:26.591Z,102569.09
2023-02-28T01:20:55.074Z,102566.66
2023-02-28T01:23:24.724Z,102572.69
2023-02-28T01:25:52.878Z,102572.94
2023-02-28T01:28:21.301Z,102573.59
2023-02-28T01:30:53.850Z,102573.78
2023-02-28T01:33:22.033Z,102570.50
2023-02-28T01:35:49.933Z,102572.41
2023-02-28T01:38:22.851Z,102571.94
2023-02-28T01:40:51.764Z,102574.38
2023-02-28T01:43:25.444Z,102568.75
2023-02-28T01:45:55.745Z,102565.72
2023-02-28T01:48:27.879Z,102564.09
2023-02-28T01:51:00.874Z,102562.66
2023-02-28T01:53:35.851Z,102565.03
2023-02-28T01:56:08.453Z,102561.75
2023-02-28T01:58:38.756Z,102563.81
2023-02-28T02:01:08.150Z,102561.06
2023-02-28T02:03:38.258Z,102567.50
2023-02-28T02:06:06.727Z,102560.53
2023-02-28T02:08:34.646Z,102558.25
2023-02-28T02:11:04.389Z,102555.78
2023-02-28T02:14:06.611Z,102558.25
2023-02-28T02:16:51.223Z,102560.19
2023-02-28T02:19:48.210Z,102552.78
2023-02-28T02:22:42.054Z,102553.44
2023-02-28T02:25:35.154Z,102545.41
2023-02-28T02:28:36.271Z,102550.50
2023-02-28T02:31:31.084Z,102549.88
2023-02-28T02:34:26.270Z,102552.06
2023-02-28T02:37:02.791Z,102542.22
2023-02-28T02:39:36.448Z,102538.97
2023-02-28T02:42:13.878Z,102538.75
2023-02-28T02:44:46.475Z,102541.38
2023-02-28T02:47:17.858Z,102545.41
2023-02-28T02:49:52.405Z,102548.69
2023-02-28T02:52:25.287Z,102546.56
2023-02-28T02:54:57.509Z,102547.66
2023-02-28T02:57:31.680Z,102547.69
2023-02-28T03:00:05.381Z,102547.38
2023-02-28T03:02:35.226Z,102551.31
2023-02-28T03:05:08.538Z,102552.78
2023-02-28T03:07:36.436Z,102555.56
2023-02-28T03:10:04.938Z,102552.06
2023-02-28T03:12:42.418Z,102549.50
2023-02-28T03:15:19.531Z,102546.16
2023-02-28T03:17:59.992Z,102541.59
2023-02-28T03:20:37.571Z,102538.09
2023-02-28T03:23:15.343Z,102549.66
2023-02-28T03:25:54.673Z,102543.09
2023-02-28T03:28:32.837Z,102542.41
2023-02-28T03:31:10.117Z,102540.06
2023-02-28T03:33:43.001Z,102540.59
2023-02-28T03:36:15.926Z,102545.81
2023-02-28T03:38:48.248Z,102541.22
2023-02-28T03:41:19.608Z,102549.53
2023-02-28T03:43:53.014Z,102539.97
2023-02-28T03:46:38.180Z,102541.13
2023-02-28T03:49:13.339Z,102544.59
2023-02-28T03:51:44.872Z,102539.47
2023-02-28T03:54:18.367Z,102540.56
2023-02-28T03:56:54.806Z,102544.28
2023-02-28T03:59:28.901Z,102538.69
2023-02-28T04:01:59.328Z,102544.00
2023-02-28T04:04:27.910Z,102547.84
2023-02-28T04:07:03.937Z,102543.91
2023-02-28T04:09:31.736Z,102540.09
2023-02-28T04:11:59.637Z,102542.03
2023-02-28T04:14:27.692Z,102537.88
2023-02-28T04:16:55.802Z,102552.97
2023-02-28T04:19:23.684Z,102552.25
2023-02-28T04:21:53.646Z,102557.19
2023-02-28T04:24:24.400Z,102551.84
2023-02-28T04:26:54.091Z,102555.31
2023-02-28T04:29:23.804Z,102553.94
2023-02-28T04:31:52.326Z,102554.25
2023-02-28T04:34:20.883Z,102558.94
2023-02-28T04:36:59.644Z,102564.34
2023-02-28T04:39:37.118Z,102559.75
2023-02-28T04:42:05.070Z,102555.75
2023-02-28T04:44:33.546Z,102560.06
2023-02-28T04:47:01.503Z,102564.34
2023-02-28T04:49:29.584Z,102568.69
2023-02-28T04:51:57.754Z,102565.41
2023-02-28T04:54:25.711Z,102564.41
2023-02-28T04:56:55.745Z,102565.06
2023-02-28T04:59:23.680Z,102564.56
2023-02-28T05:01:51.683Z,102562.28
2023-02-28T05:04:19.694Z,102565.91
2023-02-28T05:06:47.892Z,102561.53
2023-02-28T05:09:16.142Z,102558.81
2023-02-28T05:11:44.219Z,102567.03
2023-02-28T05:14:15.824Z,102561.81
2023-02-28T05:16:43.955Z,102564.78
2023-02-28T05:19:12.463Z,102568.28
2023-02-28T05:21:42.368Z,102567.75
2023-02-28T05:24:13.396Z,102570.28
2023-02-28T05:26:43.682Z,102565.09
2023-02-28T05:29:13.144Z,102572.59
2023-02-28T05:31:41.212Z,102568.28
2023-02-28T05:34:09.302Z,102571.44
2023-02-28T05:36:39.212Z,102591.91
2023-02-28T05:39:08.304Z,102588.00
2023-02-28T05:41:36.256Z,102591.03
2023-02-28T05:44:04.434Z,102594.72
2023-02-28T05:46:33.717Z,102595.50
2023-02-28T05:49:01.921Z,102590.75
2023-02-28T05:51:30.268Z,102602.13
2023-02-28T05:54:02.188Z,102602.13
2023-02-28T05:56:30.680Z,102593.75
2023-02-28T05:58:58.620Z,102591.09
2023-02-28T06:01:35.159Z,102592.78
2023-02-28T06:04:04.197Z,102588.06
2023-02-28T06:06:32.990Z,102589.63
2023-02-28T06:09:02.200Z,102590.63
2023-02-28T06:11:30.359Z,102593.00
2023-02-28T06:14:00.619Z,102594.28
2023-02-28T06:16:29.271Z,102604.13
2023-02-28T06:19:00.115Z,102592.56
2023-02-28T06:21:29.707Z,102597.75
2023-02-28T06:23:59.551Z,102600.88
2023-02-28T06:26:27.840Z,102607.16
2023-02-28T06:28:56.556Z,102604.91
2023-02-28T06:31:26.844Z,102607.53
2023-02-28T06:33:54.899Z,102611.47
2023-02-28T06:36:24.535Z,102605.28
2023-02-28T06:38:55.722Z,102609.38
2023-02-28T06:41:24.838Z,102609.59
2023-02-28T06:43:53.182Z,102622.53
2023-02-28T06:46:21.660Z,102623.81
2023-02-28T06:48:49.620Z,102619.47
2023-02-28T06:51:21.273Z,102620.44
2023-02-28T06:53:50.592Z,102625.78
2023-02-28T06:56:19.477Z,102623.78
2023-02-28T06:58:49.354Z,102627.88
2023-02-28T07:01:17.627Z,102627.69
2023-02-28T07:03:45.534Z,102624.88
2023-02-28T07:06:14.180Z,102628.84
2023-02-28T07:08:42.345Z,102630.56
2023-02-28T07:11:11.688Z,102631.63
2023-02-28T07:13:39.655Z,102629.63
2023-02-28T07:16:09.917Z,102639.13
2023-02-28T07:18:38.283Z,102640.44
2023-02-28T07:21:10.528Z,102646.00
2023-02-28T07:23:40.083Z,102648.34
2023-02-28T07:26:08.924Z,102647.00
2023-02-28T07:28:39.151Z,102652.16
2023-02-28T07:31:08.186Z,102655.13
2023-02-28T07:33:38.400Z,102654.06
2023-02-28T07:36:09.406Z,102654.16
2023-02-28T07:38:38.580Z,102648.66
2023-02-28T07:41:06.883Z,102651.38
2023-02-28T07:43:34.897Z,102655.19
2023-02-28T07:46:06.078Z,102649.31
2023-02-28T07:48:34.487Z,102651.66
2023-02-28T07:51:03.509Z,102658.88
2023-02-28T07:53:32.247Z,102655.28
2023-02-28T07:56:01.844Z,102648.94
2023-02-28T07:58:30.963Z,102653.19
2023-02-28T08:00:59.360Z,102648.66
2023-02-28T08:03:28.627Z,102645.63
2023-02-28T08:05:56.805Z,102645.53
2023-02-28T08:08:24.918Z,102624.28
2023-02-28T08:10:53.029Z,102637.31
2023-02-28T08:13:20.811Z,102634.56
2023-02-28T08:15:48.720Z,102641.09
2023-02-28T08:18:16.612Z,102644.34
2023-02-28T08:20:46.036Z,102638.72
2023-02-28T08:23:14.328Z,102646.44
2023-02-28T08:25:42.667Z,102657.34
2023-02-28T08:28:10.722Z,102644.25
2023-02-28T08:30:42.608Z,102653.97
2023-02-28T08:33:10.883Z,102651.84
2023-02-28T08:35:39.125Z,102649.00
2023-02-28T08:38:08.590Z,102652.81
2023-02-28T08:40:36.468Z,102655.38
2023-02-28T08:43:05.110Z,102651.56
2023-02-28T08:45:33.071Z,102649.19
2023-02-28T08:48:02.812Z,102657.88
2023-02-28T08:50:31.192Z,102661.44
2023-02-28T08:53:02.463Z,102662.59
2023-02-28T08:55:31.981Z,102658.34
2023-02-28T08:58:00.432Z,102652.13
2023-02-28T09:00:28.477Z,102661.97
2023-02-28T09:02:56.573Z,102658.31
2023-02-28T09:05:24.490Z,102656.63
2023-02-28T09:07:52.403Z,102660.03
2023-02-28T09:10:20.530Z,102659.53
2023-02-28T09:12:49.984Z,102665.88
2023-02-28T09:15:18.117Z,102665.09
2023-02-28T09:17:47.218Z,102661.38
2023-02-28T09:20:18.100Z,102658.72
2023-02-28T09:22:46.074Z,102651.31
2023-02-28T09:25:13.943Z,102652.97
2023-02-28T09:27:42.413Z,102653.66
2023-02-28T09:30:14.371Z,102665.81
2023-02-28T09:32:42.286Z,102651.19
2023-02-28T09:35:14.334Z,102648.63
2023-02-28T09:37:42.291Z,102649.03
2023-02-28T09:40:12.136Z,102647.28
2023-02-28T09:42:41.186Z,102658.75
2023-02-28T09:45:28.919Z,102656.09
2023-02-28T09:48:01.220Z,102651.34
2023-02-28T09:50:35.716Z,102654.28
2023-02-28T09:53:08.258Z,102654.78
2023-02-28T09:55:47.063Z,102651.34
2023-02-28T09:58:23.148Z,102660.84
2023-02-28T10:01:00.217Z,102655.75
2023-02-28T10:03:35.387Z,102648.00
2023-02-28T10:06:14.355Z,102651.16
2023-02-28T10:08:49.662Z,102660.38
2023-02-28T10:11:21.645Z,102649.41
2023-02-28T10:13:56.935Z,102652.69
2023-02-28T10:16:32.209Z,102645.47
2023-02-28T10:19:06.550Z,102645.50
2023-02-28T10:21:40.540Z,102652.31
2023-02-28T10:24:21.961Z,102650.69
2023-02-28T10:26:50.814Z,102649.78
2023-02-28T10:29:18.722Z,102641.72
2023-02-28T10:31:48.434Z,102644.69
2023-02-28T10:34:16.569Z,102636.38
2023-02-28T10:36:45.774Z,102640.56
2023-02-28T10:39:39.848Z,102645.22
2023-02-28T10:42:22.042Z,102649.50
2023-02-28T10:44:50.203Z,102647.81
2023-02-28T10:47:21.633Z,102646.41
2023-02-28T10:49:50.759Z,102643.78
2023-02-28T10:52:38.956Z,102654.63
2023-02-28T10:55:22.013Z,102649.31
2023-02-28T10:57:49.999Z,102645.72
2023-02-28T11:00:22.494Z,102648.50
2023-02-28T11:02:51.785Z,102645.53
2023-02-28T11:05:29.047Z,102640.97
2023-02-28T11:07:58.991Z,102631.50
2023-02-28T11:10:31.944Z,102641.53
2023-02-28T11:13:01.360Z,102632.81
2023-02-28T11:15:31.106Z,102630.56
2023-02-28T11:18:03.474Z,102637.00
2023-02-28T11:20:34.590Z,102631.03
2023-02-28T11:23:05.241Z,102625.22
2023-02-28T11:25:35.670Z,102625.88
2023-02-28T11:28:07.600Z,102630.06
2023-02-28T11:30:38.840Z,102618.41
2023-02-28T11:33:30.355Z,102620.97
2023-02-28T11:36:02.949Z,102614.16
2023-02-28T11:38:31.139Z,102608.78
2023-02-28T11:41:14.181Z,102609.13
2023-02-28T11:44:01.291Z,102611.34
2023-02-28T11:46:36.595Z,102614.28
2023-02-28T11:49:22.986Z,102610.47
2023-02-28T11:51:57.207Z,102615.63
2023-02-28T11:54:37.789Z,102617.72
2023-02-28T11:57:18.191Z,102608.31
2023-02-28T11:59:58.605Z,102606.81
2023-02-28T12:02:30.828Z,102606.13
2023-02-28T12:05:19.296Z,102597.41
2023-02-28T12:07:58.751Z,102602.34
2023-02-28T12:10:29.020Z,102588.25
2023-02-28T12:13:09.615Z,102591.22
2023-02-28T12:16:06.604Z,102596.69
2023-02-28T12:18:49.349Z,102596.41
2023-02-28T12:21:30.746Z,102583.06
2023-02-28T12:24:31.178Z,102581.13
2023-02-28T12:27:02.922Z,102572.88
2023-02-28T12:29:33.127Z,102570.78
2023-02-28T12:32:06.785Z,102571.53
2023-02-28T12:34:39.677Z,102562.63
2023-02-28T12:37:17.365Z,102569.56
2023-02-28T12:39:51.161Z,102570.78
2023-02-28T12:42:25.907Z,102571.06
2023-02-28T12:44:59.029Z,102552.88
2023-02-28T12:47:27.487Z,102550.56
2023-02-28T12:49:59.763Z,102546.22
2023-02-28T12:52:39.047Z,102549.38
2023-02-28T12:55:15.811Z,102557.97
2023-02-28T12:57:50.900Z,102554.06
2023-02-28T13:00:23.612Z,102544.78
2023-02-28T13:03:24.842Z,102530.66
2023-02-28T13:06:10.364Z,102523.00
2023-02-28T13:09:03.096Z,102529.34
2023-02-28T13:11:42.398Z,102516.53
2023-02-28T13:14:24.283Z,102510.38
2023-02-28T13:17:02.197Z,102507.56
2023-02-28T13:19:33.614Z,102502.28
2023-02-28T13:22:02.759Z,102501.47
2023-02-28T13:24:48.286Z,102506.00
2023-02-28T13:27:35.973Z,102502.44
2023-02-28T13:30:44.597Z,102499.81
2023-02-28T13:33:28.153Z,102502.41
2023-02-28T13:36:10.120Z,102499.81
2023-02-28T13:38:43.594Z,102503.28
2023-02-28T13:41:49.917Z,102505.50
2023-02-28T13:44:31.562Z,102503.16
2023-02-28T13:47:34.480Z,102487.84
2023-02-28T13:50:25.380Z,102492.84
2023-02-28T13:53:37.656Z,102485.44
2023-02-28T13:56:12.176Z,102486.19
2023-02-28T13:58:50.525Z,102487.78
2023-02-28T14:01:40.304Z,102479.06
2023-02-28T14:04:28.900Z,102481.09
2023-02-28T14:06:59.501Z,102497.13
2023-02-28T14:09:34.464Z,102492.38
2023-02-28T14:12:35.727Z,102493.81
2023-02-28T14:15:06.488Z,102488.88
2023-02-28T14:17:34.793Z,102492.34
2023-02-28T14:20:04.240Z,102491.47
2023-02-28T14:22:52.688Z,102494.84
2023-02-28T14:25:32.061Z,102491.03
2023-02-28T14:28:12.316Z,102493.16
2023-02-28T14:30:57.542Z,102486.31
2023-02-28T14:33:50.820Z,102486.41
2023-02-28T14:36:25.502Z,102489.09
2023-02-28T14:38:57.411Z,102488.09
2023-02-28T14:41:31.686Z,102493.31
2023-02-28T14:44:02.569Z,102486.31
2023-02-28T14:47:15.918Z,102495.41
2023-02-28T14:50:03.005Z,102485.69
2023-02-28T14:53:02.411Z,102483.38
2023-02-28T14:56:31.438Z,102482.28
2023-02-28T15:02:43.329Z,102477.06
2023-02-28T15:05:44.312Z,102484.41
2023-02-28T15:08:38.650Z,102488.59
2023-02-28T15:12:04.165Z,102466.72
2023-02-28T15:15:15.840Z,102477.44
2023-02-28T15:18:08.645Z,102467.69
2023-02-28T15:21:17.770Z,102473.00
2023-02-28T15:26:54.670Z,102472.53
2023-02-28T15:29:39.732Z,102470.25
2023-02-28T15:36:46.147Z,102476.88
2023-02-28T15:42:06.449Z,102472.13
2023-02-28T15:59:12.495Z,102470.16
2023-02-28T16:06:44.024Z,102473.78
2023-02-28T16:15:00.966Z,102478.41
2023-02-28T16:25:36.340Z,102471.41
2023-02-28T16:48:52.012Z,102483.47
2023-02-28T16:51:48.317Z,102491.50
2023-02-28T16:55:46.279Z,102484.56
2023-02-28T16:58:24.909Z,102492.25
2023-02-28T17:01:52.875Z,102492.75
2023-02-28T17:12:00.346Z,102498.19
2023-02-28T17:15:10.324Z,102498.91
2023-02-28T17:18:32.955Z,102507.25
2023-02-28T17:38:24.800Z,102518.94
2023-02-28T17:42:25.159Z,102520.94
2023-02-28T17:50:11.775Z,102521.88
2023-02-28T18:04:58.778Z,102526.09
2023-02-28T18:19:20.260Z,102546.59
2023-02-28T18:26:17.361Z,102541.47
2023-02-28T18:33:21.301Z,102553.66
2023-02-28T18:40:09.617Z,102540.88
2023-02-28T18:43:16.514Z,102538.97
2023-02-28T18:48:30.796Z,102547.44
2023-02-28T18:54:15.000Z,102538.19
2023-02-28T18:57:55.175Z,102539.16
2023-02-28T19:08:28.633Z,102527.56
2023-02-28T19:11:48.553Z,102535.38
2023-02-28T19:14:18.824Z,102534.16
2023-02-28T19:16:47.337Z,102535.69
2023-02-28T19:19:17.483Z,102535.41
2023-02-28T19:21:45.815Z,102528.88
2023-02-28T19:24:13.932Z,102534.56
2023-02-28T19:26:43.538Z,102530.22
2023-02-28T19:29:13.372Z,102534.91
2023-02-28T19:31:43.713Z,102523.31
2023-02-28T19:34:24.363Z,102528.50
2023-02-28T19:36:52.415Z,102534.69
2023-02-28T19:39:20.798Z,102528.16
2023-02-28T19:41:56.860Z,102533.97
2023-02-28T19:44:24.837Z,102526.41
2023-02-28T19:46:56.315Z,102534.88
2023-02-28T19:49:25.997Z,102535.03
2023-02-28T19:51:56.735Z,102528.03
2023-02-28T19:54:25.822Z,102531.97
2023-02-28T19:56:57.578Z,102541.53
2023-02-28T19:59:35.859Z,102547.03
2023-02-28T20:02:15.882Z,102542.19
2023-02-28T20:04:47.492Z,102547.31
2023-02-28T20:07:15.782Z,102562.06
2023-02-28T20:09:44.775Z,102551.69
2023-02-28T20:12:23.633Z,102552.16
2023-02-28T20:18:00.999Z,102560.59
2023-02-28T20:20:29.414Z,102551.63
2023-02-28T20:23:21.955Z,102555.25
2023-02-28T20:25:51.619Z,102563.16
2023-02-28T20:28:21.686Z,102570.03
2023-02-28T20:30:52.786Z,102573.63
2023-02-28T20:33:21.674Z,102566.59
2023-02-28T20:36:00.401Z,102572.75
2023-02-28T20:38:28.844Z,102571.16
2023-02-28T20:40:57.103Z,102561.13
2023-02-28T20:43:29.773Z,102566.41
2023-02-28T20:46:01.738Z,102564.13
2023-02-28T20:48:35.779Z,102553.59
2023-02-28T20:51:10.785Z,102553.19
2023-02-28T20:53:48.531Z,102551.28
2023-02-28T20:56:27.988Z,102554.13
2023-02-28T20:59:00.015Z,102560.22
2023-02-28T21:01:35.957Z,102550.25
2023-02-28T21:04:09.257Z,102548.59
2023-02-28T21:06:43.253Z,102554.06
2023-02-28T21:09:16.275Z,102559.22
2023-02-28T21:11:44.942Z,102552.91
2023-02-28T21:14:16.649Z,102559.97
2023-02-28T21:16:45.656Z,102565.25
2023-02-28T21:19:14.687Z,102567.41
2023-02-28T21:21:45.279Z,102560.59
2023-02-28T21:24:15.273Z,102564.16
2023-02-28T21:26:49.591Z,102560.53
2023-02-28T21:29:19.688Z,102564.97
2023-02-28T21:32:53.995Z,102564.28
2023-02-28T21:35:25.776Z,102573.34
2023-02-28T21:37:55.836Z,102565.38
2023-02-28T21:40:23.839Z,102572.56
2023-02-28T21:42:52.290Z,102573.38
2023-02-28T21:45:21.606Z,102563.16
2023-02-28T21:47:49.451Z,102569.88
2023-02-28T21:50:17.881Z,102566.66
2023-02-28T21:52:46.117Z,102564.84
2023-02-28T21:55:14.218Z,102560.19
2023-02-28T21:57:42.214Z,102561.84
2023-02-28T22:00:12.022Z,102567.25
2023-02-28T22:02:44.420Z,102563.91
2023-02-28T22:05:12.601Z,102564.22
2023-02-28T22:07:42.052Z,102567.44
2023-02-28T22:10:11.460Z,102563.75
2023-02-28T22:12:39.366Z,102560.81
2023-02-28T22:15:08.615Z,102554.44
2023-02-28T22:17:36.485Z,102554.59
2023-02-28T22:20:13.120Z,102550.38
2023-02-28T22:22:41.406Z,102555.41
2023-02-28T22:25:10.808Z,102562.38
2023-02-28T22:27:38.707Z,102545.91
2023-02-28T22:30:07.674Z,102544.88
2023-02-28T22:32:36.489Z,102557.09
2023-02-28T22:35:06.339Z,102551.47
2023-02-28T22:37:34.362Z,102555.13
2023-02-28T22:40:02.251Z,102555.53
2023-02-28T22:42:33.215Z,102560.16
2023-02-28T22:45:01.126Z,102556.22
2023-02-28T22:47:28.951Z,102562.00
2023-02-28T22:49:56.955Z,102545.94
2023-02-28T22:52:26.328Z,102545.75
2023-02-28T22:54:54.294Z,102554.22
2023-02-28T22:57:22.345Z,102553.78
2023-02-28T22:59:50.374Z,102553.94
2023-02-28T23:02:18.488Z,102560.38
2023-02-28T23:04:46.711Z,102556.50
2023-02-28T23:07:15.397Z,102553.81
2023-02-28T23:09:44.748Z,102554.72
2023-02-28T23:12:12.777Z,102556.31
2023-02-28T23:14:40.712Z,102558.91
2023-02-28T23:17:08.595Z,102553.81
2023-02-28T23:19:36.842Z,102559.88
2023-02-28T23:22:05.516Z,102556.28
2023-02-28T23:24:35.564Z,102558.34
2023-02-28T23:27:07.061Z,102563.91
2023-02-28T23:29:35.817Z,102556.91
2023-02-28T23:32:05.637Z,102557.59
2023-02-28T23:34:33.802Z,102560.19
2023-02-28T23:37:03.273Z,102567.88
2023-02-28T23:39:32.402Z,102563.78
2023-02-28T23:42:02.018Z,102572.47
2023-02-28T23:44:31.965Z,102562.66
2023-02-28T23:47:00.845Z,102563.81
2023-02-28T23:49:28.837Z,102558.84
2023-02-28T23:51:57.683Z,102563.44
2023-02-28T23:54:25.965Z,102568.16
2023-02-28T23:56:54.109Z,102569.66
2023-02-28T23:59:22.004Z,102556.69
